createdAt,value
2023-02-15T00:00:22.834Z,38.10
2023-02-15T00:02:49.367Z,39.53
2023-02-15T00:05:15.945Z,36.28
2023-02-15T00:07:42.425Z,36.58
2023-02-15T00:10:09.604Z,37.20
2023-02-15T00:12:36.153Z,36.45
2023-02-15T00:15:02.592Z,36.45
2023-02-15T00:17:29.445Z,37.35
2023-02-15T00:19:55.842Z,36.08
2023-02-15T00:22:22.352Z,37.05
2023-02-15T00:24:49.074Z,38.42
2023-02-15T00:27:15.501Z,35.78
2023-02-15T00:29:41.980Z,34.78
2023-02-15T00:32:08.551Z,37.35
2023-02-15T00:34:35.006Z,37.22
2023-02-15T00:37:01.496Z,35.15
2023-02-15T00:39:30.012Z,36.75
2023-02-15T00:41:56.497Z,34.03
2023-02-15T00:44:22.892Z,38.58
2023-02-15T00:46:49.313Z,34.53
2023-02-15T00:49:15.810Z,38.15
2023-02-15T00:51:42.281Z,35.28
2023-02-15T00:54:08.731Z,38.20
2023-02-15T00:56:35.217Z,34.38
2023-02-15T00:59:01.695Z,37.40
2023-02-15T01:01:28.247Z,39.30
2023-02-15T01:03:54.846Z,39.33
2023-02-15T01:06:21.682Z,38.38
2023-02-15T01:08:48.615Z,40.78
2023-02-15T01:11:16.607Z,39.63
2023-02-15T01:13:43.114Z,39.78
2023-02-15T01:16:09.660Z,38.00
2023-02-15T01:18:36.353Z,39.38
2023-02-15T01:21:10.294Z,37.30
2023-02-15T01:23:37.447Z,35.88
2023-02-15T01:26:04.349Z,36.53
2023-02-15T01:28:30.836Z,35.83
2023-02-15T01:30:57.277Z,36.45
2023-02-15T01:33:23.800Z,36.72
2023-02-15T01:35:56.607Z,34.17
2023-02-15T01:38:23.055Z,35.33
2023-02-15T01:40:51.871Z,33.97
2023-02-15T01:43:19.164Z,35.90
2023-02-15T01:45:48.358Z,37.13
2023-02-15T01:48:22.186Z,36.67
2023-02-15T01:50:51.627Z,36.55
2023-02-15T01:53:21.613Z,36.35
2023-02-15T01:55:51.574Z,35.67
2023-02-15T01:58:18.296Z,34.45
2023-02-15T02:00:45.340Z,32.75
2023-02-15T02:03:12.159Z,34.72
2023-02-15T02:05:39.805Z,34.78
2023-02-15T02:08:07.127Z,34.17
2023-02-15T02:10:33.648Z,33.35
2023-02-15T02:13:02.247Z,30.05
2023-02-15T02:15:41.847Z,32.58
2023-02-15T02:18:19.923Z,31.95
2023-02-15T02:20:49.430Z,31.30
2023-02-15T02:23:21.906Z,29.63
2023-02-15T02:26:11.528Z,31.73
2023-02-15T02:28:56.771Z,30.63
2023-02-15T02:31:38.856Z,30.95
2023-02-15T02:34:08.217Z,29.35
2023-02-15T02:36:53.335Z,30.58
2023-02-15T02:39:25.535Z,29.73
2023-02-15T02:41:51.883Z,29.10
2023-02-15T02:44:23.834Z,30.15
2023-02-15T02:46:56.179Z,28.50
2023-02-15T02:49:32.699Z,27.80
2023-02-15T02:52:19.122Z,28.20
2023-02-15T02:54:45.597Z,28.15
2023-02-15T02:57:12.092Z,28.13
2023-02-15T02:59:42.557Z,29.00
2023-02-15T03:02:18.771Z,29.45
2023-02-15T03:04:47.554Z,26.75
2023-02-15T03:07:23.155Z,27.77
2023-02-15T03:09:52.224Z,29.35
2023-02-15T03:12:23.285Z,28.75
2023-02-15T03:14:52.672Z,27.40
2023-02-15T03:17:20.967Z,27.88
2023-02-15T03:19:49.569Z,27.80
2023-02-15T03:22:22.425Z,30.08
2023-02-15T03:24:54.696Z,27.13
2023-02-15T03:27:23.377Z,28.40
2023-02-15T03:29:53.221Z,30.05
2023-02-15T03:32:20.177Z,30.50
2023-02-15T03:34:46.970Z,30.27
2023-02-15T03:37:32.245Z,30.85
2023-02-15T03:40:18.646Z,29.20
2023-02-15T03:42:46.276Z,28.67
2023-02-15T03:45:15.760Z,30.60
2023-02-15T03:47:47.695Z,31.67
2023-02-15T03:50:35.986Z,30.92
2023-02-15T03:53:03.601Z,31.67
2023-02-15T03:55:30.264Z,30.60
2023-02-15T03:58:15.236Z,32.00
2023-02-15T04:01:02.736Z,31.35
2023-02-15T04:03:32.351Z,29.73
2023-02-15T04:05:58.948Z,31.08
2023-02-15T04:08:46.748Z,31.65
2023-02-15T04:11:13.190Z,31.90
2023-02-15T04:13:39.863Z,31.63
2023-02-15T04:16:07.479Z,30.38
2023-02-15T04:18:57.405Z,31.70
2023-02-15T04:21:42.752Z,32.53
2023-02-15T04:24:28.024Z,32.75
2023-02-15T04:26:54.594Z,31.05
2023-02-15T04:29:21.960Z,32.83
2023-02-15T04:31:48.590Z,33.45
2023-02-15T04:34:15.485Z,32.55
2023-02-15T04:36:41.970Z,34.65
2023-02-15T04:39:08.815Z,35.08
2023-02-15T04:41:35.359Z,34.05
2023-02-15T04:44:02.119Z,34.17
2023-02-15T04:46:29.014Z,35.28
2023-02-15T04:48:55.733Z,38.60
2023-02-15T04:51:22.356Z,35.70
2023-02-15T04:53:48.876Z,37.55
2023-02-15T04:56:15.364Z,38.22
2023-02-15T04:58:44.712Z,36.25
2023-02-15T05:01:11.293Z,40.13
2023-02-15T05:03:37.877Z,35.35
2023-02-15T05:06:05.105Z,37.38
2023-02-15T05:08:32.011Z,34.72
2023-02-15T05:10:58.440Z,37.08
2023-02-15T05:13:25.476Z,41.72
2023-02-15T05:15:52.891Z,38.47
2023-02-15T05:18:20.052Z,39.17
2023-02-15T05:20:46.516Z,40.28
2023-02-15T05:23:13.025Z,36.63
2023-02-15T05:25:57.894Z,38.65
2023-02-15T05:28:25.548Z,37.53
2023-02-15T05:30:59.116Z,36.95
2023-02-15T05:33:25.894Z,36.38
2023-02-15T05:35:52.450Z,35.42
2023-02-15T05:38:18.946Z,36.65
2023-02-15T05:40:45.362Z,37.30
2023-02-15T05:43:11.854Z,34.80
2023-02-15T05:45:38.322Z,36.75
2023-02-15T05:48:04.849Z,35.50
2023-02-15T05:50:31.678Z,37.85
2023-02-15T05:52:58.116Z,35.08
2023-02-15T05:55:24.579Z,38.83
2023-02-15T05:57:51.082Z,37.42
2023-02-15T06:00:17.751Z,36.13
2023-02-15T06:02:44.271Z,38.95
2023-02-15T06:05:10.864Z,37.28
2023-02-15T06:07:37.428Z,40.08
2023-02-15T06:10:04.272Z,41.65
2023-02-15T06:12:30.774Z,41.88
2023-02-15T06:14:57.153Z,56.67
2023-02-15T06:17:23.604Z,47.88
2023-02-15T06:19:50.101Z,46.17
2023-02-15T06:22:16.610Z,45.42
2023-02-15T06:24:43.658Z,44.72
2023-02-15T06:27:13.069Z,42.85
2023-02-15T06:29:39.589Z,44.42
2023-02-15T06:32:06.524Z,45.13
2023-02-15T06:34:32.978Z,44.70
2023-02-15T06:36:59.432Z,44.38
2023-02-15T06:39:26.000Z,43.20
2023-02-15T06:41:52.525Z,41.72
2023-02-15T06:44:18.956Z,38.83
2023-02-15T06:46:45.516Z,38.17
2023-02-15T06:49:12.036Z,37.30
2023-02-15T06:51:38.515Z,38.60
2023-02-15T06:54:04.986Z,40.40
2023-02-15T06:56:31.454Z,38.47
2023-02-15T06:58:57.869Z,37.78
2023-02-15T07:01:24.347Z,42.65
2023-02-15T07:03:50.922Z,55.90
2023-02-15T07:06:17.344Z,52.35
2023-02-15T07:08:43.789Z,45.70
2023-02-15T07:11:28.870Z,43.15
2023-02-15T07:13:55.237Z,40.20
2023-02-15T07:16:21.719Z,37.65
2023-02-15T07:18:48.254Z,38.17
2023-02-15T07:21:14.706Z,37.72
2023-02-15T07:23:41.398Z,34.80
2023-02-15T07:26:07.944Z,34.83
2023-02-15T07:28:35.206Z,36.22
2023-02-15T07:31:04.771Z,36.08
2023-02-15T07:33:35.047Z,35.95
2023-02-15T07:36:03.222Z,34.53
2023-02-15T07:38:39.842Z,36.33
2023-02-15T07:41:10.352Z,34.58
2023-02-15T07:43:37.679Z,32.75
2023-02-15T07:46:05.414Z,36.38
2023-02-15T07:48:32.142Z,36.28
2023-02-15T07:51:02.304Z,33.10
2023-02-15T07:53:28.795Z,31.67
2023-02-15T07:55:56.095Z,29.17
2023-02-15T07:58:42.545Z,31.85
2023-02-15T08:01:09.419Z,29.60
2023-02-15T08:03:35.939Z,31.10
2023-02-15T08:06:02.874Z,29.70
2023-02-15T08:08:32.373Z,29.83
2023-02-15T08:11:21.813Z,29.48
2023-02-15T08:13:55.124Z,28.52
2023-02-15T08:16:24.452Z,30.35
2023-02-15T08:18:51.818Z,29.35
2023-02-15T08:21:18.308Z,29.50
2023-02-15T08:23:44.874Z,27.88
2023-02-15T08:26:11.370Z,28.77
2023-02-15T08:28:39.756Z,28.25
2023-02-15T08:31:10.144Z,28.63
2023-02-15T08:33:37.667Z,27.75
2023-02-15T08:36:08.736Z,27.30
2023-02-15T15:53:54.371Z,23.77
2023-02-15T15:58:55.313Z,21.10
2023-02-15T16:01:29.171Z,20.67
2023-02-15T16:03:57.228Z,22.15
2023-02-15T16:06:35.035Z,37.72
2023-02-15T16:09:21.470Z,34.22
2023-02-15T16:11:49.432Z,27.65
2023-02-15T16:14:36.089Z,25.42
2023-02-15T16:17:04.423Z,24.45
2023-02-15T16:19:33.560Z,25.60
2023-02-15T16:22:01.061Z,27.98
2023-02-15T16:24:54.513Z,26.48
2023-02-15T16:27:21.042Z,35.80
2023-02-15T16:29:47.627Z,29.23
2023-02-15T16:32:21.503Z,25.75
2023-02-15T16:34:54.550Z,29.05
2023-02-15T16:37:24.395Z,32.58
2023-02-15T16:39:51.267Z,33.42
2023-02-15T16:42:18.659Z,53.97
2023-02-15T16:45:08.887Z,34.47
2023-02-15T16:47:38.224Z,30.85
2023-02-15T16:50:05.359Z,37.35
2023-02-15T16:52:32.097Z,31.55
2023-02-15T16:55:00.552Z,31.75
2023-02-15T16:57:29.660Z,33.00
2023-02-15T16:59:58.423Z,35.08
2023-02-15T17:02:53.267Z,31.25
2023-02-15T17:05:20.125Z,38.80
2023-02-15T17:07:51.139Z,29.00
2023-02-15T17:10:31.465Z,34.80
2023-02-15T17:13:13.987Z,37.13
2023-02-15T17:15:44.906Z,38.63
2023-02-15T17:18:19.434Z,25.03
2023-02-15T17:20:47.052Z,32.38
2023-02-15T17:23:22.423Z,31.60
2023-02-15T17:25:49.578Z,30.75
2023-02-15T17:28:18.271Z,29.98
2023-02-15T17:30:47.248Z,51.13
2023-02-15T17:33:30.137Z,54.25
2023-02-15T17:36:12.690Z,245.00
2023-02-15T17:38:40.055Z,139.73
2023-02-15T17:41:06.556Z,103.00
2023-02-15T17:43:33.328Z,98.18
2023-02-15T17:46:00.022Z,83.20
2023-02-15T17:48:32.723Z,76.00
2023-02-15T17:51:01.425Z,72.35
2023-02-15T17:53:28.136Z,76.70
2023-02-15T17:55:54.633Z,80.90
2023-02-15T17:58:21.210Z,69.30
2023-02-15T18:01:11.048Z,80.55
2023-02-15T18:03:59.293Z,87.50
2023-02-15T18:06:44.526Z,86.63
2023-02-15T18:09:30.423Z,93.90
2023-02-15T18:11:57.297Z,89.32
2023-02-15T18:14:23.725Z,91.03
2023-02-15T18:16:50.284Z,95.15
2023-02-15T18:19:21.270Z,94.78
2023-02-15T18:21:48.068Z,88.13
2023-02-15T18:24:19.511Z,86.32
2023-02-15T18:26:46.023Z,88.65
2023-02-15T18:29:13.035Z,90.88
2023-02-15T18:31:40.129Z,84.78
2023-02-15T18:34:07.513Z,88.10
2023-02-15T18:36:37.590Z,94.97
2023-02-15T18:39:08.855Z,94.50
2023-02-15T18:41:35.506Z,88.82
2023-02-15T18:44:01.970Z,91.55
2023-02-15T18:46:28.402Z,95.97
2023-02-15T18:48:54.846Z,93.55
2023-02-15T18:51:24.153Z,97.63
2023-02-15T18:53:52.632Z,101.43
2023-02-15T18:56:21.224Z,103.30
2023-02-15T18:58:47.912Z,106.18
2023-02-15T19:01:16.914Z,101.55
2023-02-15T19:03:47.724Z,103.78
2023-02-15T19:06:16.077Z,101.95
2023-02-15T19:08:44.272Z,109.15
2023-02-15T19:11:23.126Z,106.68
2023-02-15T19:13:50.412Z,111.68
2023-02-15T19:16:19.712Z,128.85
2023-02-15T19:18:46.185Z,126.55
2023-02-15T19:21:15.856Z,120.10
2023-02-15T19:23:42.388Z,115.15
2023-02-15T19:26:10.259Z,116.90
2023-02-15T19:28:36.847Z,120.90
2023-02-15T19:31:03.431Z,126.07
2023-02-15T19:33:29.948Z,120.32
2023-02-15T19:35:57.713Z,118.32
2023-02-15T19:38:26.290Z,118.13
2023-02-15T19:40:53.039Z,126.65
2023-02-15T19:43:20.716Z,115.13
2023-02-15T19:45:47.261Z,107.47
2023-02-15T19:48:16.397Z,108.07
2023-02-15T19:50:45.442Z,106.20
2023-02-15T19:53:27.995Z,109.18
2023-02-15T19:55:55.628Z,109.40
2023-02-15T19:58:22.150Z,112.25
2023-02-15T20:00:49.201Z,119.32
2023-02-15T20:03:15.949Z,125.22
2023-02-15T20:05:42.861Z,123.75
2023-02-15T20:08:19.670Z,125.93
2023-02-15T20:10:46.485Z,128.68
2023-02-15T20:13:14.060Z,125.70
2023-02-15T20:15:41.115Z,119.57
2023-02-15T20:18:07.950Z,113.75
2023-02-15T20:20:34.415Z,106.25
2023-02-15T20:23:00.945Z,104.80
2023-02-15T20:25:28.408Z,100.30
2023-02-15T20:27:55.386Z,98.15
2023-02-15T20:30:23.571Z,96.28
2023-02-15T20:32:50.609Z,105.40
2023-02-15T20:35:18.427Z,105.65
2023-02-15T20:37:52.651Z,103.13
2023-02-15T20:40:29.861Z,103.15
2023-02-15T20:42:56.676Z,97.43
2023-02-15T20:45:24.906Z,102.00
2023-02-15T20:47:51.938Z,90.57
2023-02-15T20:50:44.508Z,83.28
2023-02-15T20:53:11.287Z,76.80
2023-02-15T20:55:37.810Z,75.65
2023-02-15T20:58:13.215Z,73.05
2023-02-15T21:00:39.683Z,75.10
2023-02-15T21:03:10.816Z,80.07
2023-02-15T21:05:37.257Z,82.85
2023-02-15T21:08:10.233Z,82.68
2023-02-15T21:10:36.668Z,82.57
2023-02-15T21:13:04.572Z,80.65
2023-02-15T21:15:31.109Z,80.18
2023-02-15T21:17:58.492Z,80.32
2023-02-15T21:20:25.783Z,77.60
2023-02-15T21:22:52.619Z,78.22
2023-02-15T21:25:22.529Z,78.18
2023-02-15T21:27:49.033Z,74.03
2023-02-15T21:30:16.076Z,73.78
2023-02-15T21:32:43.084Z,71.40
2023-02-15T21:35:13.692Z,60.13
2023-02-15T21:37:40.969Z,58.35
2023-02-15T21:40:30.849Z,58.50
2023-02-15T21:43:16.177Z,52.33
2023-02-15T21:46:01.655Z,49.13
2023-02-15T21:48:28.372Z,50.65
2023-02-15T21:51:13.466Z,51.08
2023-02-15T21:53:45.977Z,51.35
2023-02-15T21:56:14.497Z,53.35
2023-02-15T21:58:40.986Z,50.33
2023-02-15T22:01:16.442Z,48.00
2023-02-15T22:03:42.945Z,46.47
2023-02-15T22:06:12.162Z,44.00
2023-02-15T22:08:38.618Z,44.35
2023-02-15T22:11:10.142Z,42.08
2023-02-15T22:13:36.858Z,40.92
2023-02-15T22:16:03.685Z,43.17
2023-02-15T22:18:33.822Z,41.72
2023-02-15T22:21:00.804Z,39.97
2023-02-15T22:23:27.572Z,41.97
2023-02-15T22:25:56.198Z,42.08
2023-02-15T22:28:25.364Z,42.22
2023-02-15T22:30:51.825Z,40.63
2023-02-15T22:33:26.348Z,41.65
2023-02-15T22:35:53.184Z,41.53
2023-02-15T22:38:20.183Z,44.80
2023-02-15T22:40:47.745Z,44.17
2023-02-15T22:43:29.197Z,43.75
2023-02-15T22:45:59.697Z,46.53
2023-02-15T22:48:26.255Z,45.92
2023-02-15T22:50:52.730Z,45.80
2023-02-15T22:53:19.217Z,44.25
2023-02-15T22:55:46.121Z,44.85
2023-02-15T22:58:23.734Z,43.88
2023-02-15T23:00:50.484Z,42.80
2023-02-15T23:03:22.203Z,42.53
2023-02-15T23:05:49.019Z,43.05
2023-02-15T23:08:15.757Z,44.30
2023-02-15T23:10:43.233Z,44.25
2023-02-15T23:13:38.855Z,41.30
2023-02-15T23:16:06.865Z,38.40
2023-02-15T23:18:40.208Z,39.90
2023-02-15T23:21:13.190Z,40.58
2023-02-15T23:23:40.487Z,39.63
2023-02-15T23:26:12.335Z,41.45
2023-02-15T23:31:14.413Z,40.30
2023-02-15T23:33:41.157Z,37.47
2023-02-15T23:36:20.841Z,35.97
2023-02-15T23:38:47.308Z,38.03
2023-02-15T23:41:19.484Z,41.40
2023-02-15T23:44:02.980Z,40.45
2023-02-15T23:46:32.273Z,37.28
2023-02-15T23:48:58.803Z,39.67
2023-02-15T23:51:29.850Z,39.45
2023-02-15T23:53:56.922Z,39.47
2023-02-15T23:56:23.385Z,39.17
2023-02-15T23:58:50.492Z,41.35
